Date,TemperatureHighF,TemperatureAvgF,TemperatureLowF,DewpointHighF,DewpointAvgF,DewpointLowF,HumidityHigh,HumidityAvg,HumidityLow,PressureMaxIn,PressureMinIn,WindSpeedMaxMPH,WindSpeedAvgMPH,GustSpeedMaxMPH,PrecipitationSumIn
2013-2-13,47,47,44,42,41,36,83,82,74,29.75,29.65,4,1,8,0.29
2013-2-14,52,40,34,34,30,27,77,67,49,30.01,29.78,0,0,0,0.00
2013-2-15,61,44,32,40,29,25,77,58,38,30.02,29.86,9,0,9,0.00
2013-2-16,45,36,32,31,29,26,81,76,57,29.91,29.80,8,0,10,0.29
2013-2-17,36,31,26,24,14,11,75,50,38,30.20,29.85,11,1,11,0.00
2013-2-18,51,35,20,25,18,10,65,50,36,30.35,30.20,0,0,0,0.00
2013-2-19,50,41,33,45,33,20,85,73,52,30.16,29.80,5,0,5,0.16
2013-2-20,51,41,33,36,22,16,80,48,31,30.08,29.89,5,0,5,0.00
2013-2-21,52,39,27,24,19,12,57,44,32,30.20,30.06,5,0,5,0.00
2013-2-22,41,37,33,30,26,21,71,65,44,30.29,30.14,0,0,0,0.10
2013-2-23,44,42,36,38,36,31,83,82,78,30.11,29.76,0,0,2,0.29
2013-2-24,61,52,40,42,35,26,84,54,38,29.97,29.74,8,0,10,0.00
2013-2-25,44,40,33,25,23,21,60,50,46,30.17,29.99,3,0,7,0.00
2013-2-26,54,46,35,50,41,22,89,83,58,30.09,29.50,6,0,14,0.55
2013-2-27,59,50,42,43,37,34,85,63,46,29.72,29.57,10,0,10,0.00
2013-2-28,49,44,38,36,30,25,71,59,46,29.79,29.64,17,2,17,0.00
2013-3-1,38,33,31,25,22,21,66,64,59,29.80,29.77,0,0,0,0.00
2013-3-2,47,38,34,26,22,18,62,51,44,29.86,29.75,5,0,6,0.00
2013-3-3,46,37,30,24,19,15,57,49,39,29.92,29.78,10,1,10,0.00
2013-3-4,50,40,26,21,17,12,53,40,30,30.05,29.91,8,0,8,0.00
2013-3-5,48,42,35,40,33,18,82,70,49,30.02,29.61,8,0,12,0.20
2013-3-6,46,42,36,37,30,27,84,64,56,29.94,29.47,11,2,11,0.02
2013-3-7,49,43,36,31,28,24,67,56,46,30.17,29.97,10,1,10,0.00
2013-3-8,54,45,34,28,25,21,63,45,35,30.20,30.09,12,0,12,0.00
2013-3-9,62,52,36,32,29,23,59,41,30,30.28,30.17,7,0,10,0.00
2013-3-10,67,56,34,36,31,22,66,40,27,30.27,30.14,4,0,11,0.00
2013-3-11,66,47,40,50,31,24,66,54,42,30.17,30.03,0,0,0,0.00
2013-3-12,61,60,58,56,53,50,86,80,68,29.87,29.70,8,1,8,0.33
2013-3-13,56,47,36,34,28,20,68,49,35,30.04,29.89,13,3,13,0.00
2013-3-14,53,40,30,24,19,15,55,43,30,30.17,30.04,21,2,21,0.00
2013-3-15,64,52,31,36,30,15,55,43,35,30.11,29.84,7,0,7,0.00
2013-3-16,77,60,45,50,41,30,64,51,38,29.83,29.59,18,2,18,0.00
2013-3-17,61,48,42,47,38,35,78,67,59,30.08,29.78,10,2,14,0.00
2013-3-18,42,40,38,38,36,33,84,84,80,30.15,29.82,2,0,9,0.16
2013-3-19,66,55,40,44,31,25,85,46,27,29.93,29.76,12,2,13,0.00
2013-3-20,58,48,40,24,19,14,40,32,26,30.05,29.75,11,0,11,0.00
2013-3-21,44,40,32,26,18,10,54,42,34,29.91,29.69,16,3,16,0.00
2013-3-22,52,43,25,20,18,9,51,36,28,30.02,29.90,13,1,13,0.00
2013-3-23,57,45,36,31,24,16,53,44,36,30.00,29.86,0,0,0,0.00
2013-3-24,41,39,36,35,31,24,83,74,52,29.87,29.51,8,1,10,0.65
2013-3-25,48,43,35,35,27,24,81,54,44,29.70,29.51,18,3,18,0.00
2013-3-26,49,43,33,30,26,20,63,50,45,30.01,29.74,10,1,10,0.00
2013-3-27,51,43,35,27,22,19,62,44,35,30.16,30.05,15,2,15,0.00
2013-3-28,38,34,33,21,20,20,60,57,49,30.16,30.13,8,0,8,0.00
2013-3-29,61,52,33,31,26,19,59,38,30,30.26,30.11,4,0,14,0.00
2013-3-30,68,53,40,37,31,24,57,43,31,30.18,30.01,9,1,9,0.00
2013-3-31,68,59,49,55,49,35,82,69,48,30.03,29.74,12,1,19,0.51
2013-4-1,73,61,54,50,42,38,79,52,37,29.86,29.75,9,1,9,0.04
2013-4-2,61,50,37,35,26,24,62,40,28,30.10,29.91,10,1,10,0.00
2013-4-3,61,50,38,27,23,18,44,35,26,30.24,30.09,10,1,10,0.00
2013-4-4,47,40,39,34,29,20,82,68,38,30.32,29.92,4,0,9,0.45
2013-4-5,66,53,39,46,38,34,84,58,45,29.95,29.82,6,0,6,0.08
2013-4-6,67,55,44,35,31,25,60,40,30,30.22,29.96,6,1,15,0.00
2013-4-7,73,57,39,46,38,27,65,49,35,30.22,30.04,6,0,6,0.00
2013-4-8,80,72,52,56,50,38,75,48,39,30.10,29.98,4,0,4,0.00
2013-4-9,87,76,57,60,54,48,75,49,37,30.11,29.99,10,0,10,0.00
2013-4-10,89,75,60,62,56,50,76,55,37,30.03,29.87,9,0,9,0.00
2013-4-11,82,73,63,64,58,54,77,61,46,29.93,29.74,3,0,3,0.00
2013-4-12,85,76,67,67,60,53,86,59,45,29.74,29.54,6,0,9,0.41
2013-4-13,77,64,51,45,42,37,60,45,31,29.93,29.70,10,0,10,0.00
2013-4-14,83,71,48,48,44,36,67,40,27,30.05,29.94,3,0,10,0.00
2013-4-15,72,66,57,56,54,45,80,65,44,30.16,29.99,0,0,0,0.06
2013-4-16,78,71,60,61,57,53,79,63,53,30.25,30.13,0,0,0,0.00
2013-4-17,82,70,58,64,58,51,83,68,54,30.17,30.06,0,0,0,0.00
2013-4-18,80,71,62,61,58,54,80,64,47,30.15,29.99,9,1,9,0.00
2013-4-19,82,68,66,66,62,58,86,80,58,29.99,29.66,14,0,14,0.84
2013-4-20,67,57,48,61,38,34,85,50,36,30.18,29.77,8,2,10,0.06
2013-4-21,64,58,44,41,38,33,69,48,43,30.45,30.23,8,0,9,0.00
2013-4-22,62,50,38,41,36,30,75,60,43,30.42,30.22,14,1,14,0.00
2013-4-23,72,61,48,52,47,40,75,60,48,30.22,30.06,4,0,4,0.02
2013-4-24,76,68,49,57,52,41,83,58,48,30.09,29.91,8,1,8,0.00
2013-4-25,75,64,52,52,44,38,70,49,37,30.19,29.95,10,1,10,0.00
2013-4-26,74,59,46,44,40,36,71,51,32,30.36,30.21,6,0,6,0.00
2013-4-27,74,66,53,48,46,39,67,49,38,30.33,30.20,5,0,8,0.00
2013-4-28,60,58,55,52,49,45,80,73,64,30.21,30.05,0,0,0,0.24
2013-4-29,70,60,55,62,55,49,85,82,75,30.07,29.92,0,0,0,0.55
2013-4-30,61,59,58,56,54,53,86,84,81,30.04,29.96,0,0,0,0.00
2013-5-1,61,59,58,57,54,52,86,84,82,30.29,30.13,4,1,4,0.00
2013-5-2,62,60,56,56,54,52,86,82,79,30.29,30.20,1,0,4,0.00
2013-5-3,69,57,49,55,48,42,85,71,51,30.23,30.13,0,0,0,0.00
2013-5-4,62,58,49,52,49,42,80,73,68,30.18,30.04,6,1,9,0.00
2013-5-5,59,55,49,53,49,43,82,80,74,30.05,29.94,2,0,10,0.00
2013-5-6,66,61,56,61,57,52,89,86,84,29.96,29.79,0,0,0,2.26
2013-5-7,67,61,55,59,54,51,87,77,69,29.88,29.81,1,0,2,0.02
2013-5-8,69,60,54,59,54,48,85,79,67,29.95,29.86,8,0,8,0.00
2013-5-9,84,71,55,61,57,50,87,63,47,30.00,29.92,8,0,8,0.00
2013-5-10,87,72,59,64,58,52,79,63,43,30.01,29.89,0,0,0,0.00
2013-5-11,83,75,68,64,62,58,74,64,51,29.90,29.73,14,0,17,0.02
2013-5-12,76,66,60,61,48,39,81,55,34,29.94,29.75,10,1,14,0.22
2013-5-13,70,57,46,41,37,33,64,47,33,30.12,29.98,2,0,2,0.00
2013-5-14,72,57,43,46,38,31,67,50,35,30.19,30.02,1,0,1,0.00
2013-5-15,91,70,52,64,53,40,68,55,41,30.01,29.83,7,0,7,0.00
2013-5-16,86,77,64,63,60,55,74,56,44,29.92,29.84,8,0,8,0.00
2013-5-17,90,76,64,65,61,55,75,61,44,30.03,29.93,3,0,3,0.00
2013-5-18,77,71,64,68,63,55,81,75,66,30.12,30.02,6,0,8,0.75
2013-5-19,74,70,64,69,65,59,87,84,80,30.10,30.00,5,0,8,0.37
2013-5-20,78,72,68,70,66,64,89,83,74,30.06,29.97,3,0,12,0.61
2013-5-21,86,76,68,73,68,64,88,76,63,29.99,29.89,6,0,6,0.00
2013-5-22,86,75,70,70,67,64,84,76,55,29.98,29.86,7,0,7,0.02
2013-5-23,70,68,67,64,62,62,85,84,80,29.91,29.87,0,0,0,0.14
2013-5-24,70,64,58,63,46,40,83,53,40,30.08,29.77,24,2,24,0.02
2013-5-25,78,59,45,47,41,35,71,53,31,30.21,30.08,8,1,8,0.00
2013-5-26,79,62,49,51,45,38,69,55,37,30.23,30.12,3,0,3,0.00
2013-5-27,87,67,52,58,52,44,76,59,38,30.23,30.11,3,0,3,0.00
2013-5-28,86,78,61,66,62,50,78,58,50,30.21,30.08,0,0,1,0.00
2013-5-29,88,78,64,66,62,56,81,60,49,30.19,30.10,0,0,0,0.00
2013-5-30,90,80,64,68,63,56,81,57,45,30.22,30.12,0,0,0,0.00
2013-5-31,90,81,67,68,65,59,82,59,48,30.18,30.05,0,0,0,0.00
2013-6-1,90,79,69,68,65,62,82,64,47,30.09,29.97,0,0,0,0.00
2013-6-2,87,78,70,69,66,62,79,67,52,29.99,29.86,0,0,0,0.29
2013-6-3,86,76,71,72,68,64,86,77,63,29.90,29.78,0,0,0,0.45
2013-6-4,78,70,65,66,63,61,86,77,65,30.04,29.89,0,0,0,0.00
2013-6-5,82,74,63,65,62,58,82,68,54,30.09,29.97,0,0,0,0.00
2013-6-6,74,69,66,69,63,56,88,80,63,29.99,29.77,9,0,9,0.92
2013-6-7,73,70,68,69,67,65,90,89,87,29.80,29.48,9,0,12,1.75
2013-6-8,71,70,69,67,66,65,89,89,89,29.85,29.77,0,0,0,0.02
2013-6-9,88,77,68,72,68,62,85,75,60,30.12,30.01,7,0,7,0.00
2013-6-10,81,76,72,75,71,66,88,84,78,30.06,29.84,8,2,13,0.82
2013-6-11,88,78,70,69,67,65,86,68,51,29.90,29.84,4,0,4,0.00
2013-6-12,93,78,66,75,68,60,83,70,55,29.92,29.82,6,0,6,0.00
2013-6-13,96,77,72,74,67,63,86,73,44,29.81,29.55,2,0,2,0.14
2013-6-14,82,71,62,63,59,55,80,66,48,29.94,29.66,11,1,11,0.00
2013-6-15,88,73,60,65,60,54,80,65,46,30.07,29.96,0,0,0,0.00
2013-6-16,89,74,65,71,63,56,76,69,52,30.07,29.94,1,0,2,0.00
2013-6-17,84,77,72,73,68,63,76,72,67,29.98,29.88,6,0,6,0.00
2013-6-18,83,75,71,73,68,65,84,80,71,29.92,29.72,1,0,1,0.49
2013-6-19,81,73,66,68,65,61,88,78,64,30.06,29.83,0,0,0,0.00
2013-6-20,85,73,65,66,63,60,85,70,54,30.19,30.07,0,0,0,0.00
2013-6-21,87,75,60,64,60,51,79,59,46,30.22,30.14,0,0,0,0.00
2013-6-22,84,77,70,71,68,61,82,74,64,30.17,30.07,4,0,9,0.00
2013-6-23,88,79,69,74,70,64,85,75,62,30.17,30.07,6,0,9,0.02
2013-6-24,89,79,72,74,70,66,85,75,60,30.16,30.04,7,0,7,0.00
2013-6-25,92,81,70,75,70,65,85,69,58,30.07,29.95,2,0,4,0.00
2013-6-26,93,77,71,75,68,64,84,74,54,29.97,29.84,2,0,2,0.59
2013-6-27,89,79,68,75,70,64,89,76,61,29.90,29.68,5,0,5,0.00
2013-6-28,91,76,72,74,68,66,86,78,57,29.69,29.52,8,0,8,0.63
2013-6-29,87,79,70,74,71,66,88,77,64,29.68,29.56,3,0,7,0.35
2013-6-30,86,75,70,75,69,64,88,81,67,29.82,29.67,4,0,9,0.73
2013-7-1,83,75,70,74,70,66,89,83,74,29.94,29.79,5,0,8,0.77
2013-7-2,76,74,73,71,70,69,89,87,81,30.14,29.93,6,1,8,0.20
2013-7-3,85,77,73,76,72,69,91,85,72,30.20,30.10,7,1,13,1.43
2013-7-4,74,74,74,70,70,70,87,87,86,30.20,30.19,0,0,0,0.00
2013-7-5,91,80,72,74,71,68,89,75,57,30.23,30.12,5,0,5,0.00
2013-7-6,90,81,74,75,71,69,84,74,61,30.20,30.08,0,0,0,0.00
2013-7-7,89,81,71,75,72,65,86,74,63,30.15,30.02,3,0,3,0.00
2013-7-8,90,81,71,76,72,67,87,75,59,30.13,30.04,3,0,6,0.71
2013-7-9,88,78,73,76,71,67,87,79,68,30.11,30.02,1,0,4,0.00
2013-7-10,89,78,73,75,71,68,87,80,64,30.07,29.89,6,0,9,0.22
2013-7-11,79,74,73,73,69,68,89,86,80,29.94,29.85,4,0,4,0.43
2013-7-12,75,72,71,70,68,66,89,85,82,29.97,29.83,1,0,4,0.00
2013-7-13,78,76,70,74,72,66,89,87,86,30.12,29.97,0,0,0,0.16
2013-7-14,89,78,70,75,72,67,91,80,62,30.25,30.15,5,1,5,0.00
2013-7-15,93,86,70,76,73,66,87,65,56,30.27,30.19,0,0,2,0.00
2013-7-16,97,81,71,78,72,66,84,73,55,30.23,30.13,0,0,0,0.33
2013-7-17,95,86,76,78,75,70,87,71,58,30.18,30.06,0,0,0,0.00
2013-7-18,93,86,76,78,75,70,84,72,59,30.09,29.98,2,0,5,0.00
2013-7-19,92,85,75,76,73,70,86,68,59,30.05,29.93,6,0,6,0.00
2013-7-20,92,83,75,76,73,70,82,72,60,29.98,29.86,0,0,0,0.00
2013-7-21,89,78,75,76,72,69,83,80,65,29.94,29.87,10,0,10,0.00
2013-7-22,90,81,73,76,72,68,86,75,64,29.91,29.77,8,0,8,0.04
2013-7-23,93,82,74,75,72,69,84,72,55,29.80,29.68,0,0,0,0.00
2013-7-24,93,82,72,74,70,66,81,69,49,29.79,29.69,3,0,3,0.00
2013-7-25,82,74,68,70,66,62,84,76,67,29.98,29.80,6,0,6,0.18
2013-7-26,87,74,64,69,64,58,83,71,54,30.07,29.98,0,0,0,0.00
2013-7-27,84,74,68,71,66,61,85,79,65,30.01,29.89,2,0,10,0.10
2013-7-28,91,81,70,74,71,66,87,73,54,29.92,29.87,3,0,6,0.00
2013-7-29,90,78,69,69,64,61,85,64,47,30.10,29.94,8,0,8,0.08
2013-7-30,88,75,64,70,63,56,76,68,55,30.18,30.09,0,0,0,0.00
2013-7-31,82,75,72,72,68,65,83,79,69,30.10,29.96,0,0,0,0.02
2013-8-1,86,76,71,74,70,66,88,80,68,29.97,29.81,3,0,3,0.37
2013-8-2,90,80,67,72,69,63,87,69,55,29.97,29.86,6,0,6,0.51
2013-8-3,87,79,71,76,72,66,86,79,66,29.97,29.86,6,0,7,0.06
2013-8-4,82,75,71,71,69,66,89,80,63,29.95,29.85,8,1,10,0.00
2013-8-5,83,75,66,67,64,59,81,69,56,30.05,29.96,0,0,0,0.00
2013-8-6,82,77,67,69,66,61,84,70,62,30.01,29.95,0,0,0,0.27
2013-8-7,86,77,70,70,67,63,84,74,60,30.05,29.98,6,0,6,0.00
2013-8-8,89,82,71,74,71,65,85,71,61,30.02,29.95,0,0,0,0.00
2013-8-9,93,81,74,76,70,68,86,71,58,29.99,29.93,9,0,9,0.00
2013-8-10,91,80,74,77,72,68,84,75,61,30.03,29.96,2,0,11,0.18
2013-8-11,92,79,72,76,72,67,87,79,58,30.06,29.97,2,0,5,0.00
2013-8-12,94,79,72,74,70,68,86,75,51,30.01,29.91,8,0,8,0.00
2013-8-13,88,79,72,75,71,67,87,77,64,29.93,29.73,3,0,10,0.29
2013-8-14,75,71,63,68,63,55,83,76,68,30.04,29.78,0,0,0,0.00
2013-8-15,62,61,60,55,54,53,79,78,76,30.09,30.03,0,0,0,0.00
2013-8-16,70,66,60,61,58,53,81,75,71,30.13,30.05,0,0,0,0.00
2013-8-17,70,66,62,66,62,56,88,85,79,30.15,30.07,2,0,3,0.26
2013-8-18,77,73,67,68,66,62,90,79,71,30.17,30.07,4,0,7,0.08
2013-8-19,67,66,66,61,61,61,86,85,82,30.16,30.12,0,0,0,0.02
2013-8-20,69,66,65,64,62,61,88,87,85,30.10,30.06,0,0,0,0.00
2013-8-21,84,75,72,74,69,67,88,83,73,30.18,30.07,0,0,0,0.65
2013-8-22,90,77,69,73,69,65,90,77,57,30.09,29.95,2,0,2,0.00
2013-8-23,87,76,69,72,67,63,83,76,61,30.02,29.89,5,1,7,0.00
2013-8-24,82,76,63,64,62,58,83,61,51,30.22,30.04,7,0,7,0.00
2013-8-25,81,69,62,63,60,55,84,73,53,30.35,30.24,6,1,6,0.00
2013-8-26,85,71,56,63,58,50,83,65,47,30.27,30.06,0,0,0,0.00
2013-8-27,67,63,61,56,55,54,78,75,69,30.08,30.00,0,0,0,0.00
2013-8-28,80,75,70,73,69,64,83,81,76,29.94,29.83,0,0,0,0.00
2013-8-29,86,79,73,72,69,67,84,73,64,29.94,29.79,1,0,5,0.00
2013-8-30,88,77,67,69,66,62,84,69,52,30.02,29.90,0,0,0,0.00
2013-8-31,88,77,66,72,67,60,86,73,59,29.92,29.81,0,0,0,0.00
2013-9-1,89,74,70,74,68,65,86,80,62,29.86,29.75,0,0,0,0.69
2013-9-2,88,82,69,74,72,65,89,72,61,29.84,29.75,0,0,0,0.00
2013-9-3,88,78,70,74,69,66,87,76,58,29.88,29.75,0,0,0,0.00
2013-9-4,85,78,66,70,67,60,83,69,59,30.05,29.89,0,0,0,0.00
2013-9-5,87,74,65,64,62,60,84,66,43,30.05,29.98,0,0,0,0.00
2013-9-6,81,71,63,63,59,53,74,65,50,30.13,30.04,0,0,0,0.00
2013-9-7,82,70,59,64,60,53,80,69,55,30.09,29.93,0,0,0,0.00
2013-9-8,87,79,63,66,64,57,82,60,46,29.93,29.86,0,0,0,0.00
2013-9-9,87,78,67,70,67,60,81,68,56,30.08,29.95,0,0,0,0.00
2013-9-10,89,78,68,71,67,62,85,70,54,30.19,30.10,0,0,0,0.00
2013-9-11,89,77,67,71,66,61,82,69,52,30.16,30.04,0,0,0,0.00
2013-9-12,90,77,68,72,67,62,81,71,55,30.03,29.77,0,0,0,0.00
2013-9-13,83,75,69,65,58,53,79,57,46,29.83,29.72,0,0,0,0.00
2013-9-14,70,64,58,52,49,47,69,59,50,30.03,29.85,0,0,0,0.00
2013-9-15,70,60,53,58,52,44,77,73,65,30.19,30.10,0,0,0,0.00
2013-9-16,84,74,64,68,60,55,83,63,49,30.10,30.01,0,0,0,0.00
2013-9-17,69,63,58,57,53,51,75,70,66,30.23,30.14,0,0,0,0.00
2013-9-18,73,64,50,52,48,44,79,59,44,30.26,30.12,0,0,0,0.00
2013-9-19,75,64,56,59,53,47,76,68,55,30.15,30.05,0,0,0,0.00
2013-9-20,70,66,63,63,60,56,83,79,72,30.05,29.93,0,0,0,0.04
2013-9-21,74,68,65,68,64,61,87,85,79,29.93,29.69,0,0,0,0.37
2013-9-22,76,68,63,62,59,54,88,75,56,29.83,29.68,0,0,0,0.27
2013-9-23,71,63,55,54,52,48,77,67,54,30.02,29.85,0,0,0,0.00
2013-9-24,75,65,54,59,54,47,80,69,57,30.06,29.90,0,0,0,0.00
2013-9-25,72,63,54,60,55,48,83,76,64,29.92,29.83,0,0,0,0.00
2013-9-26,75,66,59,58,56,52,82,71,51,29.98,29.83,0,0,0,0.00
2013-9-27,72,64,55,58,53,50,85,70,58,30.13,29.99,0,0,0,0.00
2013-9-28,59,55,54,53,50,48,84,81,72,30.20,30.12,0,0,0,0.00
2013-9-29,72,61,52,56,51,47,85,70,51,30.13,29.99,0,0,0,0.00
2013-9-30,74,65,52,58,53,47,83,66,53,30.06,29.95,0,0,0,0.00
2013-10-1,81,66,54,61,55,48,83,69,49,30.07,29.97,0,0,0,0.00
2013-10-2,83,69,57,62,57,51,83,66,47,30.07,29.99,0,0,0,0.00
2013-10-3,84,72,60,65,60,53,81,65,48,30.07,30.00,0,0,0,0.00
2013-10-4,84,72,61,65,60,55,82,67,51,30.09,30.00,0,0,0,0.00
2013-10-5,88,74,63,68,61,56,82,67,46,30.07,29.98,0,0,0,0.00
2013-10-6,83,76,63,68,66,56,84,70,58,30.02,29.88,0,0,0,0.00
2013-10-7,72,68,65,68,64,61,88,86,80,29.92,29.80,0,0,0,1.53
2013-10-8,62,58,57,55,49,46,78,70,63,30.15,29.96,0,0,0,0.00
2013-10-9,61,57,55,52,50,47,83,78,71,30.16,30.06,0,0,0,0.00
2013-10-10,60,58,52,56,54,49,88,87,86,30.03,29.89,0,0,0,0.02
2013-10-11,65,61,58,60,56,54,88,86,82,29.91,29.85,0,0,0,0.04
2013-10-12,67,63,60,62,59,56,88,86,85,30.03,29.90,0,0,0,0.00
2013-10-13,65,62,60,61,58,57,89,87,86,30.16,30.03,0,0,0,0.06
2013-10-14,63,61,60,59,58,57,90,89,86,30.20,30.15,0,0,0,0.02
2013-10-15,70,64,52,60,56,48,89,76,66,30.16,30.00,0,0,0,0.00
2013-10-16,70,64,62,61,58,56,85,80,73,30.01,29.91,0,0,0,0.00
2013-10-17,72,66,60,62,59,55,87,81,69,29.91,29.79,0,0,0,0.00
2013-10-18,69,61,54,62,51,47,84,69,54,29.99,29.83,0,0,0,0.00
2013-10-19,62,59,57,57,54,50,85,83,75,29.93,29.84,0,0,0,0.00
2013-10-21,65,51,39,49,42,34,82,71,52,30.11,29.97,0,0,0,0.00
2013-10-22,66,57,51,56,50,44,82,77,71,29.95,29.77,0,0,0,0.00
2013-10-23,64,57,47,54,46,33,86,69,45,29.94,29.64,0,0,0,0.02
2013-10-24,56,47,37,36,32,28,71,58,45,30.12,29.96,0,0,0,0.00
2013-10-25,53,45,39,32,30,26,66,56,42,30.30,30.13,0,0,0,0.00
2013-10-26,57,44,31,34,29,22,72,57,41,30.30,30.01,0,0,0,0.00
2013-10-27,65,58,42,42,40,33,71,51,40,30.07,29.98,0,0,0,0.00
2013-11-3,60,51,42,41,37,34,72,60,45,30.30,29.87,0,0,0,0.00
2013-11-4,53,45,37,34,31,27,70,58,46,30.49,30.31,0,0,0,0.00
2013-11-5,57,47,38,44,36,27,71,66,60,30.49,30.39,0,0,0,0.00
2013-11-6,68,56,45,54,46,38,79,71,60,30.38,30.09,0,0,0,0.00
2013-11-7,67,58,48,58,48,31,86,71,51,30.07,29.87,0,0,0,0.02
2013-11-8,55,45,36,31,28,24,64,52,38,30.26,30.04,0,0,0,0.00
2013-11-9,45,37,32,32,26,22,69,65,59,30.32,30.26,0,0,0,0.00
2013-11-10,72,60,37,46,38,27,72,46,34,30.13,29.99,0,0,0,0.00
2013-11-11,58,46,36,32,27,22,58,48,37,30.30,30.11,0,0,0,0.00
2013-11-12,57,40,36,38,27,21,69,59,45,30.33,29.98,0,0,0,0.00
2013-11-13,43,34,27,19,16,13,57,48,38,30.47,30.36,0,0,0,0.00
2013-11-14,56,39,25,27,21,14,66,49,32,30.40,30.27,0,0,0,0.00
2013-11-15,59,45,31,38,30,18,65,55,46,30.30,30.15,0,0,0,0.00
2013-11-16,60,57,50,52,50,40,82,78,66,30.22,30.16,0,0,0,0.00
2013-11-17,67,63,54,59,56,49,85,79,75,30.18,29.86,0,0,0,0.00
2013-11-18,72,64,55,63,52,32,89,66,41,29.91,29.75,0,0,0,0.08
2013-11-19,54,46,40,31,27,26,55,48,40,30.23,29.91,0,0,0,0.00
2013-11-20,50,43,36,32,29,23,62,57,48,30.40,30.27,0,0,0,0.00
2013-11-21,56,48,40,43,37,31,72,67,62,30.44,30.34,0,0,0,0.00
2013-11-22,67,60,47,56,51,38,75,72,68,30.33,30.03,0,0,0,0.00
2013-11-23,62,56,47,54,44,26,80,65,37,30.08,29.99,0,0,0,0.00
2013-11-24,41,32,26,21,9,5,44,38,31,30.48,30.13,0,0,0,0.00
2013-11-25,41,32,20,16,12,5,55,42,34,30.53,30.35,0,0,0,0.00
2013-11-26,62,44,36,58,36,15,89,75,42,30.31,29.54,0,0,0,0.98
2013-11-27,46,44,30,41,39,18,86,83,61,30.05,29.45,0,0,0,0.39
2013-11-28,42,35,23,25,20,13,69,54,44,30.42,30.09,0,0,0,0.00
2013-11-29,48,38,25,27,23,17,72,53,43,30.58,30.41,0,0,0,0.00
2013-11-30,46,35,28,30,24,18,69,63,55,30.58,30.34,0,0,0,0.00
2013-12-1,54,39,28,34,27,20,74,63,47,30.33,30.00,0,0,0,0.00
2013-12-2,57,43,33,42,32,24,75,67,57,29.99,29.78,0,0,0,0.00
2013-12-3,54,45,35,43,36,28,79,71,65,29.93,29.82,0,0,0,0.00
2013-12-4,61,54,49,53,48,41,81,79,73,30.03,29.93,0,0,0,0.02
2013-12-5,66,60,54,61,56,49,89,85,82,30.08,29.99,0,0,0,0.04
2013-12-6,75,68,63,63,60,59,89,76,63,30.01,29.91,0,0,0,0.00
2013-12-7,67,44,42,61,37,32,84,75,68,30.40,29.93,0,0,0,0.20
2013-12-8,42,35,32,32,28,26,84,76,62,30.40,30.26,0,0,0,0.27
2013-12-9,44,38,34,40,34,29,87,85,84,30.25,30.02,0,0,0,0.27
2013-12-10,45,42,32,41,37,23,88,81,64,30.24,29.88,0,0,0,0.33
2013-12-11,46,34,25,28,24,19,79,66,47,30.38,30.24,0,0,0,0.00
2013-12-12,41,35,28,24,19,14,70,53,39,30.36,30.21,0,0,0,0.00
2013-12-13,48,34,23,25,19,13,67,55,39,30.32,30.21,0,0,0,0.00
2013-12-14,44,41,37,36,32,24,81,70,59,30.24,29.87,0,0,0,0.22
2013-12-15,51,45,37,39,33,25,85,64,52,29.99,29.67,0,0,0,0.02
2013-12-16,52,40,28,35,28,21,76,64,49,30.11,30.00,0,0,0,0.00
2013-12-17,57,47,33,40,34,26,78,62,52,30.05,29.81,0,0,0,0.00
2013-12-18,46,37,33,34,21,17,70,52,38,30.21,29.97,0,0,0,0.00
2013-12-19,59,44,28,31,25,16,65,48,34,30.26,30.16,0,0,0,0.00
2013-12-20,65,54,39,50,41,26,69,62,49,30.18,30.05,0,0,0,0.00
2013-12-21,70,64,46,60,55,40,84,73,64,30.10,29.97,0,0,0,0.00
2013-12-22,75,69,63,65,62,58,84,79,65,30.03,29.95,0,0,0,0.16
2013-12-23,65,59,48,61,54,39,89,84,71,30.09,29.93,0,0,0,0.88
2013-12-24,47,39,30,38,24,13,70,54,46,30.38,30.09,0,0,0,0.00
2013-12-25,37,31,22,17,14,9,58,49,42,30.49,30.35,0,0,0,0.00
2013-12-26,50,35,23,29,22,12,73,59,43,30.33,30.17,0,0,0,0.00
2013-12-27,49,38,26,27,21,16,67,51,40,30.41,30.31,0,0,0,0.00
2013-12-28,55,39,26,33,25,16,70,57,42,30.35,30.12,0,0,0,0.00
2013-12-29,53,48,42,47,42,33,86,80,62,30.11,29.65,0,0,0,1.53
2013-12-30,52,44,38,41,36,32,82,73,63,30.09,29.88,0,0,0,0.00
2013-12-31,49,38,34,33,24,21,76,58,42,30.29,30.08,0,0,0,0.00
2014-1-1,49,41,30,30,26,20,71,57,45,30.37,30.14,0,0,0,0.00
2014-1-2,46,41,36,38,32,25,81,71,63,30.09,29.55,0,0,0,0.33